Cote D IVoirian Star — A8SL4 — position and weather

sailwx.info

Track history (hours):
 
Tides and Currents Weather Stations Pressure Air Temp Water Temp Dewpoint Dewpoint Depression Visibility Wind Speed Wind Dir Waves Ship Positions

Cote D IVoirian Star

Last reported at 2017-Jun-23 07:48 UTC. Time now 2017-Jun-27 14:05 UTC.
Position N 04°42' W 002°27'.

Length 185 m; draft 8.4 m.

Type: Cargo ship. MMSI: 636014241.

Date/timePositionNaut miles runAvg speedWind from/ knotsBaromVisibWave heightAir tempDewpointWater temp
2017-Jun-23 07:48N 04°42' W 002°27'618.5
2017-Jun-23 07:29N 04°40' W 002°22'1118.6
2017-Jun-23 06:55N 04°40' W 002°11'818.9
2017-Jun-23 06:30N 04°39' W 002°03'918.7
2017-Jun-23 06:00N 04°39' W 001°54'1019.2
2017-Jun-23 05:30N 04°43' W 001°45'1019.3
2017-Jun-23 04:59N 04°46' W 001°35'1019.4
2017-Jun-23 04:29N 04°49' W 001°26'1019.3
2017-Jun-23 03:59N 04°52' W 001°17'919.1
2017-Jun-23 03:30N 04°54' W 001°08'1019.0
2017-Jun-23 03:00N 04°57' W 000°59'1018.8
2017-Jun-23 02:27N 05°00' W 000°49'1118.5
2017-Jun-23 01:52N 05°05' W 000°39'818.7
2017-Jun-23 01:25N 05°09' W 000°32'1018.5
2017-Jun-23 00:53N 05°15' W 000°24'718.6
2017-Jun-23 00:31N 05°18' W 000°17'918.4
2017-Jun-23 00:01N 05°23' W 000°10'918.5
2017-Jun-22 23:31N 05°28' W 000°02'816.6
2017-Jun-22 23:01N 05°34' E 000°03'4 8.8
2017-Jun-22 22:30N 05°38' E 000°01'0 0.9
2017-Jun-22 22:00N 05°38' E 000°01'0 0.0
2017-Jun-22 21:30N 05°38' E 000°01'0 0.0
2017-Jun-22 21:00N 05°38' E 000°01'0 0.0
2017-Jun-22 20:30N 05°38' E 000°01'0 0.0
2017-Jun-22 20:00N 05°38' E 000°01'0 0.0
2017-Jun-22 19:30N 05°38' E 000°01'0 0.0
2017-Jun-22 19:00N 05°38' E 000°01'0 0.0
2017-Jun-22 18:30N 05°38' E 000°01'0 0.0
2017-Jun-22 18:00N 05°38' E 000°01'0 0.0
2017-Jun-22 17:30N 05°38' E 000°01'0 0.0
2017-Jun-22 17:00N 05°38' E 000°01'0 0.0
2017-Jun-22 16:30N 05°38' E 000°01'0 0.0
2017-Jun-22 16:00N 05°38' E 000°01'0 0.0
2017-Jun-22 15:30N 05°38' E 000°01'0 0.0
2017-Jun-22 15:00N 05°38' E 000°01'0 0.0
2017-Jun-22 14:00N 05°38' E 000°01'0 0.0
2017-Jun-22 13:30N 05°38' E 000°01'0 0.0
2017-Jun-22 13:00N 05°38' E 000°01'0 0.0
2017-Jun-22 12:30N 05°38' E 000°01'0 0.0
2017-Jun-22 12:00N 05°38' E 000°01'0 0.0
2017-Jun-22 11:30N 05°38' E 000°01'0 0.0
2017-Jun-22 11:00N 05°38' E 000°01'0 0.0
2017-Jun-22 10:30N 05°38' E 000°01'0 0.0
2017-Jun-22 10:00N 05°38' E 000°01'0 0.0
2017-Jun-22 09:30N 05°38' E 000°01'0 0.0
2017-Jun-22 09:00N 05°38' E 000°01'0 0.0
2017-Jun-22 08:30N 05°38' E 000°01'0 0.0
2017-Jun-22 08:00N 05°38' E 000°01'0 0.0
2017-Jun-22 07:30N 05°38' E 000°01'0 0.0
2017-Jun-22 07:00N 05°38' E 000°01'0 0.2
2017-Jun-22 06:30N 05°38' E 000°01'2 4.1
2017-Jun-22 06:00N 05°37' E 000°03'0 1.0
2017-Jun-22 05:30N 05°37' E 000°03'3 5.0
2017-Jun-22 05:00N 05°35' E 000°04'714.7
2017-Jun-22 04:30N 05°29' E 000°09'918.6
2017-Jun-22 04:00N 05°24' E 000°17'918.9
2017-Jun-22 03:30N 05°18' E 000°24'1118.7
2017-Jun-22 02:56N 05°12' E 000°33'1018.4
2017-Jun-22 02:24N 05°06' E 000°41'2018.0
2017-Jun-22 01:16N 04°54' E 000°57'917.5
2017-Jun-22 00:45N 04°49' E 001°05'  
Track history (hours):
 
Tides and Currents Weather Stations Pressure Air Temp Water Temp Dewpoint Dewpoint Depression Visibility Wind Speed Wind Dir Waves Ship Positions

Cote D IVoirian Star

Last reported at 2017-Jun-23 07:48 UTC. Time now 2017-Jun-27 14:05 UTC.
Position N 04°42' W 002°27'.

Length 185 m; draft 8.4 m.

Type: Cargo ship. MMSI: 636014241.

Date/timePositionNaut miles runAvg speedWind from/ knotsBaromVisibWave heightAir tempDewpointWater temp
2017-Jun-23 07:48N 04°42' W 002°27'618.5
2017-Jun-23 07:29N 04°40' W 002°22'1118.6
2017-Jun-23 06:55N 04°40' W 002°11'818.9
2017-Jun-23 06:30N 04°39' W 002°03'918.7
2017-Jun-23 06:00N 04°39' W 001°54'1019.2
2017-Jun-23 05:30N 04°43' W 001°45'1019.3
2017-Jun-23 04:59N 04°46' W 001°35'1019.4
2017-Jun-23 04:29N 04°49' W 001°26'1019.3
2017-Jun-23 03:59N 04°52' W 001°17'919.1
2017-Jun-23 03:30N 04°54' W 001°08'1019.0
2017-Jun-23 03:00N 04°57' W 000°59'1018.8
2017-Jun-23 02:27N 05°00' W 000°49'1118.5
2017-Jun-23 01:52N 05°05' W 000°39'818.7
2017-Jun-23 01:25N 05°09' W 000°32'1018.5
2017-Jun-23 00:53N 05°15' W 000°24'718.6
2017-Jun-23 00:31N 05°18' W 000°17'918.4
2017-Jun-23 00:01N 05°23' W 000°10'918.5
2017-Jun-22 23:31N 05°28' W 000°02'816.6
2017-Jun-22 23:01N 05°34' E 000°03'4 8.8
2017-Jun-22 22:30N 05°38' E 000°01'0 0.9
2017-Jun-22 22:00N 05°38' E 000°01'0 0.0
2017-Jun-22 21:30N 05°38' E 000°01'0 0.0
2017-Jun-22 21:00N 05°38' E 000°01'0 0.0
2017-Jun-22 20:30N 05°38' E 000°01'0 0.0
2017-Jun-22 20:00N 05°38' E 000°01'0 0.0
2017-Jun-22 19:30N 05°38' E 000°01'0 0.0
2017-Jun-22 19:00N 05°38' E 000°01'0 0.0
2017-Jun-22 18:30N 05°38' E 000°01'0 0.0
2017-Jun-22 18:00N 05°38' E 000°01'0 0.0
2017-Jun-22 17:30N 05°38' E 000°01'0 0.0
2017-Jun-22 17:00N 05°38' E 000°01'0 0.0
2017-Jun-22 16:30N 05°38' E 000°01'0 0.0
2017-Jun-22 16:00N 05°38' E 000°01'0 0.0
2017-Jun-22 15:30N 05°38' E 000°01'0 0.0
2017-Jun-22 15:00N 05°38' E 000°01'0 0.0
2017-Jun-22 14:00N 05°38' E 000°01'0 0.0
2017-Jun-22 13:30N 05°38' E 000°01'0 0.0
2017-Jun-22 13:00N 05°38' E 000°01'0 0.0
2017-Jun-22 12:30N 05°38' E 000°01'0 0.0
2017-Jun-22 12:00N 05°38' E 000°01'0 0.0
2017-Jun-22 11:30N 05°38' E 000°01'0 0.0
2017-Jun-22 11:00N 05°38' E 000°01'0 0.0
2017-Jun-22 10:30N 05°38' E 000°01'0 0.0
2017-Jun-22 10:00N 05°38' E 000°01'0 0.0
2017-Jun-22 09:30N 05°38' E 000°01'0 0.0
2017-Jun-22 09:00N 05°38' E 000°01'0 0.0
2017-Jun-22 08:30N 05°38' E 000°01'0 0.0
2017-Jun-22 08:00N 05°38' E 000°01'0 0.0
2017-Jun-22 07:30N 05°38' E 000°01'0 0.0
2017-Jun-22 07:00N 05°38' E 000°01'0 0.2
2017-Jun-22 06:30N 05°38' E 000°01'2 4.1
2017-Jun-22 06:00N 05°37' E 000°03'0 1.0
2017-Jun-22 05:30N 05°37' E 000°03'3 5.0
2017-Jun-22 05:00N 05°35' E 000°04'714.7
2017-Jun-22 04:30N 05°29' E 000°09'918.6
2017-Jun-22 04:00N 05°24' E 000°17'918.9
2017-Jun-22 03:30N 05°18' E 000°24'1118.7
2017-Jun-22 02:56N 05°12' E 000°33'1018.4
2017-Jun-22 02:24N 05°06' E 000°41'2018.0
2017-Jun-22 01:16N 04°54' E 000°57'917.5
2017-Jun-22 00:45N 04°49' E 001°05'  

Dump ship's entire track history